sensor_id;sensor_type;location;lat;lon;timestamp;P1;durP1;ratioP1;P2;durP2;ratioP2
20609;SDS011;10463;52.378;9.688;2022-12-07T00:00:55;1.77;;;1.20;;
20609;SDS011;10463;52.378;9.688;2022-12-07T00:04:01;1.80;;;1.13;;
20609;SDS011;10463;52.378;9.688;2022-12-07T00:07:07;1.90;;;1.17;;
20609;SDS011;10463;52.378;9.688;2022-12-07T00:09:53;1.50;;;0.90;;
20609;SDS011;10463;52.378;9.688;2022-12-07T00:12:38;1.53;;;0.90;;
20609;SDS011;10463;52.378;9.688;2022-12-07T00:15:22;1.70;;;1.23;;
20609;SDS011;10463;52.378;9.688;2022-12-07T00:18:07;1.97;;;1.13;;
20609;SDS011;10463;52.378;9.688;2022-12-07T00:20:51;1.90;;;1.17;;
20609;SDS011;10463;52.378;9.688;2022-12-07T00:23:38;1.90;;;1.20;;
20609;SDS011;10463;52.378;9.688;2022-12-07T00:26:24;1.67;;;1.17;;
20609;SDS011;10463;52.378;9.688;2022-12-07T00:29:13;2.07;;;1.30;;
20609;SDS011;10463;52.378;9.688;2022-12-07T00:32:00;1.80;;;1.20;;
20609;SDS011;10463;52.378;9.688;2022-12-07T00:34:44;2.73;;;1.90;;
20609;SDS011;10463;52.378;9.688;2022-12-07T00:37:29;2.33;;;2.13;;
20609;SDS011;10463;52.378;9.688;2022-12-07T00:40:15;2.63;;;2.00;;
20609;SDS011;10463;52.378;9.688;2022-12-07T00:43:00;2.70;;;1.97;;
20609;SDS011;10463;52.378;9.688;2022-12-07T00:45:44;2.53;;;2.00;;
20609;SDS011;10463;52.378;9.688;2022-12-07T00:48:29;2.50;;;2.00;;
20609;SDS011;10463;52.378;9.688;2022-12-07T00:51:15;3.93;;;3.47;;
20609;SDS011;10463;52.378;9.688;2022-12-07T00:54:02;3.33;;;2.93;;
20609;SDS011;10463;52.378;9.688;2022-12-07T00:56:48;2.40;;;2.10;;
20609;SDS011;10463;52.378;9.688;2022-12-07T00:59:33;3.53;;;2.97;;
20609;SDS011;10463;52.378;9.688;2022-12-07T01:02:18;3.40;;;2.97;;
20609;SDS011;10463;52.378;9.688;2022-12-07T01:05:02;3.70;;;2.97;;
20609;SDS011;10463;52.378;9.688;2022-12-07T01:07:48;3.13;;;2.83;;
20609;SDS011;10463;52.378;9.688;2022-12-07T01:10:33;3.70;;;2.80;;
20609;SDS011;10463;52.378;9.688;2022-12-07T01:13:19;3.50;;;2.93;;
20609;SDS011;10463;52.378;9.688;2022-12-07T01:16:05;3.30;;;3.00;;
20609;SDS011;10463;52.378;9.688;2022-12-07T01:18:52;2.67;;;2.47;;
20609;SDS011;10463;52.378;9.688;2022-12-07T01:21:38;2.90;;;2.60;;
20609;SDS011;10463;52.378;9.688;2022-12-07T01:24:23;3.53;;;2.67;;
20609;SDS011;10463;52.378;9.688;2022-12-07T01:27:07;3.90;;;3.50;;
20609;SDS011;10463;52.378;9.688;2022-12-07T01:29:53;3.00;;;2.70;;
20609;SDS011;10463;52.378;9.688;2022-12-07T01:32:38;4.17;;;3.10;;
20609;SDS011;10463;52.378;9.688;2022-12-07T01:35:23;4.80;;;3.60;;
20609;SDS011;10463;52.378;9.688;2022-12-07T01:38:08;4.23;;;3.27;;
20609;SDS011;10463;52.378;9.688;2022-12-07T01:40:56;3.60;;;2.57;;
20609;SDS011;10463;52.378;9.688;2022-12-07T01:44:07;3.17;;;2.70;;
20609;SDS011;10463;52.378;9.688;2022-12-07T01:47:00;3.40;;;2.93;;
20609;SDS011;10463;52.378;9.688;2022-12-07T01:49:46;3.60;;;3.30;;
20609;SDS011;10463;52.378;9.688;2022-12-07T01:52:33;3.40;;;2.97;;
20609;SDS011;10463;52.378;9.688;2022-12-07T01:55:20;3.13;;;2.73;;
20609;SDS011;10463;52.378;9.688;2022-12-07T01:58:05;4.33;;;3.73;;
20609;SDS011;10463;52.378;9.688;2022-12-07T02:00:51;5.03;;;4.53;;
20609;SDS011;10463;52.378;9.688;2022-12-07T02:03:39;4.10;;;3.70;;
20609;SDS011;10463;52.378;9.688;2022-12-07T02:06:25;4.50;;;4.10;;
20609;SDS011;10463;52.378;9.688;2022-12-07T02:09:10;4.63;;;3.70;;
20609;SDS011;10463;52.378;9.688;2022-12-07T02:11:56;3.87;;;3.47;;
20609;SDS011;10463;52.378;9.688;2022-12-07T02:14:41;4.33;;;3.53;;
20609;SDS011;10463;52.378;9.688;2022-12-07T02:17:30;3.77;;;3.20;;
20609;SDS011;10463;52.378;9.688;2022-12-07T02:20:25;4.10;;;3.70;;
20609;SDS011;10463;52.378;9.688;2022-12-07T02:30:20;4.43;;;3.90;;
20609;SDS011;10463;52.378;9.688;2022-12-07T02:33:08;4.53;;;3.77;;
20609;SDS011;10463;52.378;9.688;2022-12-07T02:36:00;3.30;;;2.77;;
20609;SDS011;10463;52.378;9.688;2022-12-07T02:38:51;3.00;;;2.70;;
20609;SDS011;10463;52.378;9.688;2022-12-07T02:41:43;3.43;;;2.90;;
20609;SDS011;10463;52.378;9.688;2022-12-07T02:44:32;3.13;;;2.83;;
20609;SDS011;10463;52.378;9.688;2022-12-07T02:47:18;2.80;;;2.30;;
20609;SDS011;10463;52.378;9.688;2022-12-07T02:50:06;3.00;;;2.63;;
20609;SDS011;10463;52.378;9.688;2022-12-07T02:52:52;5.13;;;3.13;;
20609;SDS011;10463;52.378;9.688;2022-12-07T02:55:38;4.20;;;3.40;;
20609;SDS011;10463;52.378;9.688;2022-12-07T02:58:31;2.80;;;2.27;;
20609;SDS011;10463;52.378;9.688;2022-12-07T03:01:28;2.77;;;2.47;;
20609;SDS011;10463;52.378;9.688;2022-12-07T03:04:28;2.90;;;2.60;;
20609;SDS011;10463;52.378;9.688;2022-12-07T03:07:26;3.23;;;2.30;;
20609;SDS011;10463;52.378;9.688;2022-12-07T03:10:22;3.40;;;2.83;;
20609;SDS011;10463;52.378;9.688;2022-12-07T03:13:16;3.10;;;2.60;;
20609;SDS011;10463;52.378;9.688;2022-12-07T03:16:09;5.00;;;2.90;;
20609;SDS011;10463;52.378;9.688;2022-12-07T03:18:59;3.07;;;2.47;;
20609;SDS011;10463;52.378;9.688;2022-12-07T03:21:51;3.23;;;2.67;;
20609;SDS011;10463;52.378;9.688;2022-12-07T03:24:41;3.83;;;2.90;;
20609;SDS011;10463;52.378;9.688;2022-12-07T03:27:30;4.40;;;2.43;;
20609;SDS011;10463;52.378;9.688;2022-12-07T03:30:19;2.90;;;2.60;;
20609;SDS011;10463;52.378;9.688;2022-12-07T03:33:07;3.63;;;2.53;;
20609;SDS011;10463;52.378;9.688;2022-12-07T03:35:58;3.33;;;2.27;;
20609;SDS011;10463;52.378;9.688;2022-12-07T03:38:49;2.70;;;2.43;;
20609;SDS011;10463;52.378;9.688;2022-12-07T03:41:38;2.30;;;2.03;;
20609;SDS011;10463;52.378;9.688;2022-12-07T03:44:24;3.03;;;2.40;;
20609;SDS011;10463;52.378;9.688;2022-12-07T03:47:11;2.10;;;1.77;;
20609;SDS011;10463;52.378;9.688;2022-12-07T03:50:02;2.87;;;1.97;;
20609;SDS011;10463;52.378;9.688;2022-12-07T03:52:53;1.90;;;1.40;;
20609;SDS011;10463;52.378;9.688;2022-12-07T03:55:42;2.47;;;1.83;;
20609;SDS011;10463;52.378;9.688;2022-12-07T03:58:29;2.43;;;1.87;;
20609;SDS011;10463;52.378;9.688;2022-12-07T04:01:17;4.87;;;2.23;;
20609;SDS011;10463;52.378;9.688;2022-12-07T04:04:02;2.37;;;1.90;;
20609;SDS011;10463;52.378;9.688;2022-12-07T04:06:47;3.17;;;2.17;;
20609;SDS011;10463;52.378;9.688;2022-12-07T04:09:32;2.47;;;1.77;;
20609;SDS011;10463;52.378;9.688;2022-12-07T04:12:18;2.40;;;1.60;;
20609;SDS011;10463;52.378;9.688;2022-12-07T04:15:03;1.97;;;1.47;;
20609;SDS011;10463;52.378;9.688;2022-12-07T04:17:49;2.20;;;1.63;;
20609;SDS011;10463;52.378;9.688;2022-12-07T04:20:34;2.63;;;1.83;;
20609;SDS011;10463;52.378;9.688;2022-12-07T04:23:19;2.57;;;2.00;;
20609;SDS011;10463;52.378;9.688;2022-12-07T04:26:04;3.20;;;2.47;;
20609;SDS011;10463;52.378;9.688;2022-12-07T04:28:50;3.13;;;2.33;;
20609;SDS011;10463;52.378;9.688;2022-12-07T04:31:35;2.23;;;1.80;;
20609;SDS011;10463;52.378;9.688;2022-12-07T04:34:20;2.93;;;2.57;;
20609;SDS011;10463;52.378;9.688;2022-12-07T04:37:06;3.23;;;2.43;;
20609;SDS011;10463;52.378;9.688;2022-12-07T04:39:50;2.50;;;2.00;;
20609;SDS011;10463;52.378;9.688;2022-12-07T04:42:35;2.77;;;2.30;;
20609;SDS011;10463;52.378;9.688;2022-12-07T04:45:21;2.73;;;2.30;;
20609;SDS011;10463;52.378;9.688;2022-12-07T04:48:06;2.97;;;2.37;;
20609;SDS011;10463;52.378;9.688;2022-12-07T04:50:50;3.33;;;2.83;;
20609;SDS011;10463;52.378;9.688;2022-12-07T04:53:35;3.00;;;2.40;;
20609;SDS011;10463;52.378;9.688;2022-12-07T04:56:20;3.50;;;2.63;;
20609;SDS011;10463;52.378;9.688;2022-12-07T04:59:05;3.03;;;2.30;;
20609;SDS011;10463;52.378;9.688;2022-12-07T05:01:51;2.60;;;2.23;;
20609;SDS011;10463;52.378;9.688;2022-12-07T05:04:36;2.90;;;2.40;;
20609;SDS011;10463;52.378;9.688;2022-12-07T05:07:21;2.30;;;1.90;;
20609;SDS011;10463;52.378;9.688;2022-12-07T05:10:06;3.93;;;2.57;;
20609;SDS011;10463;52.378;9.688;2022-12-07T05:12:52;2.47;;;2.10;;
20609;SDS011;10463;52.378;9.688;2022-12-07T05:15:36;2.93;;;2.00;;
20609;SDS011;10463;52.378;9.688;2022-12-07T05:18:23;2.60;;;2.30;;
20609;SDS011;10463;52.378;9.688;2022-12-07T05:21:08;2.07;;;1.83;;
20609;SDS011;10463;52.378;9.688;2022-12-07T05:23:52;2.80;;;2.50;;
20609;SDS011;10463;52.378;9.688;2022-12-07T05:26:37;4.00;;;2.50;;
20609;SDS011;10463;52.378;9.688;2022-12-07T05:29:22;3.80;;;3.50;;
20609;SDS011;10463;52.378;9.688;2022-12-07T05:32:07;4.23;;;3.10;;
20609;SDS011;10463;52.378;9.688;2022-12-07T05:34:52;2.90;;;2.30;;
20609;SDS011;10463;52.378;9.688;2022-12-07T05:37:38;4.30;;;3.20;;
20609;SDS011;10463;52.378;9.688;2022-12-07T05:40:23;3.10;;;2.80;;
20609;SDS011;10463;52.378;9.688;2022-12-07T05:43:07;2.87;;;2.50;;
20609;SDS011;10463;52.378;9.688;2022-12-07T05:45:53;5.10;;;2.43;;
20609;SDS011;10463;52.378;9.688;2022-12-07T05:48:37;2.37;;;2.10;;
20609;SDS011;10463;52.378;9.688;2022-12-07T05:51:23;3.40;;;2.40;;
20609;SDS011;10463;52.378;9.688;2022-12-07T05:54:08;4.03;;;2.77;;
20609;SDS011;10463;52.378;9.688;2022-12-07T05:56:53;2.43;;;2.10;;
20609;SDS011;10463;52.378;9.688;2022-12-07T05:59:38;3.40;;;1.97;;
20609;SDS011;10463;52.378;9.688;2022-12-07T06:02:23;2.23;;;1.67;;
20609;SDS011;10463;52.378;9.688;2022-12-07T06:05:07;2.27;;;1.80;;
20609;SDS011;10463;52.378;9.688;2022-12-07T06:07:54;2.77;;;2.30;;
20609;SDS011;10463;52.378;9.688;2022-12-07T06:10:38;4.40;;;2.47;;
20609;SDS011;10463;52.378;9.688;2022-12-07T06:13:23;3.50;;;2.10;;
20609;SDS011;10463;52.378;9.688;2022-12-07T06:16:08;3.90;;;2.00;;
20609;SDS011;10463;52.378;9.688;2022-12-07T06:18:52;2.73;;;1.97;;
20609;SDS011;10463;52.378;9.688;2022-12-07T06:21:38;2.43;;;2.07;;
20609;SDS011;10463;52.378;9.688;2022-12-07T06:24:24;2.50;;;2.30;;
20609;SDS011;10463;52.378;9.688;2022-12-07T06:27:09;2.30;;;1.63;;
20609;SDS011;10463;52.378;9.688;2022-12-07T06:29:54;2.23;;;1.73;;
20609;SDS011;10463;52.378;9.688;2022-12-07T06:32:39;2.40;;;2.10;;
20609;SDS011;10463;52.378;9.688;2022-12-07T06:35:24;2.43;;;1.60;;
20609;SDS011;10463;52.378;9.688;2022-12-07T06:38:08;3.80;;;1.80;;
20609;SDS011;10463;52.378;9.688;2022-12-07T06:40:54;5.37;;;3.10;;
20609;SDS011;10463;52.378;9.688;2022-12-07T06:43:39;3.23;;;2.10;;
20609;SDS011;10463;52.378;9.688;2022-12-07T06:46:24;3.27;;;2.43;;
20609;SDS011;10463;52.378;9.688;2022-12-07T06:49:08;2.43;;;1.90;;
20609;SDS011;10463;52.378;9.688;2022-12-07T06:51:53;2.80;;;1.83;;
20609;SDS011;10463;52.378;9.688;2022-12-07T06:54:39;3.67;;;2.20;;
20609;SDS011;10463;52.378;9.688;2022-12-07T06:57:25;3.57;;;2.23;;
20609;SDS011;10463;52.378;9.688;2022-12-07T07:00:11;3.37;;;2.20;;
20609;SDS011;10463;52.378;9.688;2022-12-07T07:02:58;2.67;;;1.93;;
20609;SDS011;10463;52.378;9.688;2022-12-07T07:05:43;2.90;;;1.80;;
20609;SDS011;10463;52.378;9.688;2022-12-07T07:08:28;2.43;;;1.80;;
20609;SDS011;10463;52.378;9.688;2022-12-07T07:11:13;3.47;;;1.60;;
20609;SDS011;10463;52.378;9.688;2022-12-07T07:13:59;3.10;;;1.23;;
20609;SDS011;10463;52.378;9.688;2022-12-07T07:16:46;3.17;;;1.43;;
20609;SDS011;10463;52.378;9.688;2022-12-07T07:19:31;2.40;;;1.50;;
20609;SDS011;10463;52.378;9.688;2022-12-07T07:22:16;1.80;;;1.27;;
20609;SDS011;10463;52.378;9.688;2022-12-07T07:25:01;3.20;;;1.47;;
20609;SDS011;10463;52.378;9.688;2022-12-07T07:27:45;2.10;;;1.30;;
20609;SDS011;10463;52.378;9.688;2022-12-07T07:30:31;1.77;;;1.10;;
20609;SDS011;10463;52.378;9.688;2022-12-07T07:33:16;2.57;;;1.47;;
20609;SDS011;10463;52.378;9.688;2022-12-07T07:36:01;3.03;;;1.30;;
20609;SDS011;10463;52.378;9.688;2022-12-07T07:38:46;2.80;;;1.07;;
20609;SDS011;10463;52.378;9.688;2022-12-07T07:41:31;2.37;;;1.07;;
20609;SDS011;10463;52.378;9.688;2022-12-07T07:44:16;1.67;;;1.10;;
20609;SDS011;10463;52.378;9.688;2022-12-07T07:47:02;3.43;;;1.13;;
20609;SDS011;10463;52.378;9.688;2022-12-07T07:49:47;2.03;;;1.03;;
20609;SDS011;10463;52.378;9.688;2022-12-07T07:52:32;1.83;;;1.37;;
20609;SDS011;10463;52.378;9.688;2022-12-07T07:55:16;1.70;;;1.20;;
20609;SDS011;10463;52.378;9.688;2022-12-07T07:58:01;1.60;;;1.10;;
20609;SDS011;10463;52.378;9.688;2022-12-07T08:00:46;1.90;;;1.10;;
20609;SDS011;10463;52.378;9.688;2022-12-07T08:03:32;1.80;;;1.10;;
20609;SDS011;10463;52.378;9.688;2022-12-07T08:06:16;2.13;;;1.20;;
20609;SDS011;10463;52.378;9.688;2022-12-07T08:09:01;1.70;;;1.10;;
20609;SDS011;10463;52.378;9.688;2022-12-07T08:11:46;1.97;;;1.17;;
20609;SDS011;10463;52.378;9.688;2022-12-07T08:14:31;4.77;;;1.33;;
20609;SDS011;10463;52.378;9.688;2022-12-07T08:17:16;2.53;;;1.27;;
20609;SDS011;10463;52.378;9.688;2022-12-07T08:20:03;1.50;;;1.00;;
20609;SDS011;10463;52.378;9.688;2022-12-07T08:22:49;1.80;;;1.00;;
20609;SDS011;10463;52.378;9.688;2022-12-07T08:25:33;2.10;;;1.20;;
20609;SDS011;10463;52.378;9.688;2022-12-07T08:28:19;1.80;;;1.10;;
20609;SDS011;10463;52.378;9.688;2022-12-07T08:31:04;2.00;;;1.50;;
20609;SDS011;10463;52.378;9.688;2022-12-07T08:33:51;1.80;;;1.10;;
20609;SDS011;10463;52.378;9.688;2022-12-07T08:36:37;2.10;;;1.20;;
20609;SDS011;10463;52.378;9.688;2022-12-07T08:39:22;1.70;;;1.00;;
20609;SDS011;10463;52.378;9.688;2022-12-07T08:42:06;1.70;;;0.93;;
20609;SDS011;10463;52.378;9.688;2022-12-07T08:44:51;1.50;;;0.83;;
20609;SDS011;10463;52.378;9.688;2022-12-07T08:47:36;1.57;;;1.03;;
20609;SDS011;10463;52.378;9.688;2022-12-07T08:50:24;2.10;;;1.00;;
20609;SDS011;10463;52.378;9.688;2022-12-07T08:53:11;1.63;;;0.73;;
20609;SDS011;10463;52.378;9.688;2022-12-07T08:55:55;1.50;;;0.80;;
20609;SDS011;10463;52.378;9.688;2022-12-07T08:58:42;1.87;;;1.17;;
20609;SDS011;10463;52.378;9.688;2022-12-07T09:01:28;1.80;;;1.10;;
20609;SDS011;10463;52.378;9.688;2022-12-07T09:04:13;1.80;;;1.00;;
20609;SDS011;10463;52.378;9.688;2022-12-07T09:06:59;1.47;;;0.90;;
20609;SDS011;10463;52.378;9.688;2022-12-07T09:09:46;1.60;;;0.93;;
20609;SDS011;10463;52.378;9.688;2022-12-07T09:12:31;1.80;;;0.90;;
20609;SDS011;10463;52.378;9.688;2022-12-07T09:15:16;1.60;;;0.90;;
20609;SDS011;10463;52.378;9.688;2022-12-07T09:18:01;2.07;;;0.90;;
20609;SDS011;10463;52.378;9.688;2022-12-07T09:20:46;1.90;;;1.20;;
20609;SDS011;10463;52.378;9.688;2022-12-07T09:23:31;1.63;;;0.73;;
20609;SDS011;10463;52.378;9.688;2022-12-07T09:26:19;1.53;;;0.90;;
20609;SDS011;10463;52.378;9.688;2022-12-07T09:29:04;1.50;;;0.80;;
20609;SDS011;10463;52.378;9.688;2022-12-07T09:31:49;1.87;;;0.90;;
20609;SDS011;10463;52.378;9.688;2022-12-07T09:34:34;1.50;;;1.10;;
20609;SDS011;10463;52.378;9.688;2022-12-07T09:37:19;1.50;;;0.80;;
20609;SDS011;10463;52.378;9.688;2022-12-07T09:40:06;1.40;;;0.80;;
20609;SDS011;10463;52.378;9.688;2022-12-07T09:42:53;1.50;;;0.80;;
20609;SDS011;10463;52.378;9.688;2022-12-07T09:45:39;2.63;;;0.90;;
20609;SDS011;10463;52.378;9.688;2022-12-07T09:48:29;1.57;;;0.80;;
20609;SDS011;10463;52.378;9.688;2022-12-07T09:51:18;1.53;;;0.80;;
20609;SDS011;10463;52.378;9.688;2022-12-07T09:54:04;1.57;;;0.83;;
20609;SDS011;10463;52.378;9.688;2022-12-07T09:56:49;1.90;;;0.83;;
20609;SDS011;10463;52.378;9.688;2022-12-07T09:59:35;1.50;;;0.90;;
20609;SDS011;10463;52.378;9.688;2022-12-07T10:02:25;1.30;;;0.70;;
20609;SDS011;10463;52.378;9.688;2022-12-07T10:05:21;1.60;;;0.90;;
20609;SDS011;10463;52.378;9.688;2022-12-07T10:08:09;1.60;;;0.90;;
20609;SDS011;10463;52.378;9.688;2022-12-07T10:10:56;1.77;;;0.80;;
20609;SDS011;10463;52.378;9.688;2022-12-07T10:13:43;1.90;;;1.10;;
20609;SDS011;10463;52.378;9.688;2022-12-07T10:16:37;2.33;;;1.20;;
20609;SDS011;10463;52.378;9.688;2022-12-07T10:19:25;1.70;;;1.10;;
20609;SDS011;10463;52.378;9.688;2022-12-07T10:22:13;1.80;;;1.30;;
20609;SDS011;10463;52.378;9.688;2022-12-07T10:25:08;1.80;;;1.20;;
20609;SDS011;10463;52.378;9.688;2022-12-07T10:28:10;1.80;;;1.10;;
20609;SDS011;10463;52.378;9.688;2022-12-07T10:31:01;1.77;;;1.10;;
20609;SDS011;10463;52.378;9.688;2022-12-07T10:33:52;2.00;;;1.17;;
20609;SDS011;10463;52.378;9.688;2022-12-07T10:36:38;1.97;;;1.00;;
20609;SDS011;10463;52.378;9.688;2022-12-07T10:39:23;2.00;;;1.50;;
20609;SDS011;10463;52.378;9.688;2022-12-07T10:42:16;1.80;;;1.27;;
20609;SDS011;10463;52.378;9.688;2022-12-07T10:45:12;2.13;;;1.10;;
20609;SDS011;10463;52.378;9.688;2022-12-07T10:48:02;2.33;;;1.30;;
20609;SDS011;10463;52.378;9.688;2022-12-07T10:50:58;4.23;;;1.50;;
20609;SDS011;10463;52.378;9.688;2022-12-07T10:53:57;2.10;;;1.17;;
20609;SDS011;10463;52.378;9.688;2022-12-07T10:56:54;4.23;;;1.30;;
20609;SDS011;10463;52.378;9.688;2022-12-07T11:00:03;3.10;;;2.13;;
20609;SDS011;10463;52.378;9.688;2022-12-07T11:06:23;3.53;;;2.00;;
20609;SDS011;10463;52.378;9.688;2022-12-07T11:09:36;2.80;;;1.97;;
20609;SDS011;10463;52.378;9.688;2022-12-07T11:12:38;3.50;;;2.33;;
20609;SDS011;10463;52.378;9.688;2022-12-07T11:15:45;4.40;;;2.30;;
20609;SDS011;10463;52.378;9.688;2022-12-07T11:18:43;3.90;;;2.60;;
20609;SDS011;10463;52.378;9.688;2022-12-07T11:21:39;2.10;;;1.53;;
20609;SDS011;10463;52.378;9.688;2022-12-07T11:24:32;2.47;;;1.73;;
20609;SDS011;10463;52.378;9.688;2022-12-07T11:27:30;3.03;;;1.90;;
20609;SDS011;10463;52.378;9.688;2022-12-07T11:30:21;4.03;;;1.83;;
20609;SDS011;10463;52.378;9.688;2022-12-07T11:33:15;3.00;;;2.03;;
20609;SDS011;10463;52.378;9.688;2022-12-07T11:36:09;3.90;;;2.20;;
20609;SDS011;10463;52.378;9.688;2022-12-07T11:39:16;3.70;;;2.13;;
20609;SDS011;10463;52.378;9.688;2022-12-07T11:42:10;2.60;;;1.43;;
20609;SDS011;10463;52.378;9.688;2022-12-07T11:45:00;2.60;;;1.80;;
20609;SDS011;10463;52.378;9.688;2022-12-07T11:47:55;3.10;;;2.20;;
20609;SDS011;10463;52.378;9.688;2022-12-07T11:50:45;3.70;;;2.30;;
20609;SDS011;10463;52.378;9.688;2022-12-07T11:53:33;2.60;;;1.60;;
20609;SDS011;10463;52.378;9.688;2022-12-07T11:56:25;6.20;;;1.73;;
20609;SDS011;10463;52.378;9.688;2022-12-07T11:59:13;6.40;;;2.27;;
20609;SDS011;10463;52.378;9.688;2022-12-07T12:02:12;4.40;;;1.87;;
20609;SDS011;10463;52.378;9.688;2022-12-07T12:05:03;3.23;;;1.70;;
20609;SDS011;10463;52.378;9.688;2022-12-07T12:08:03;2.87;;;1.70;;
20609;SDS011;10463;52.378;9.688;2022-12-07T12:11:02;2.87;;;1.80;;
20609;SDS011;10463;52.378;9.688;2022-12-07T12:17:32;3.07;;;1.63;;
20609;SDS011;10463;52.378;9.688;2022-12-07T12:20:41;2.40;;;1.60;;
20609;SDS011;10463;52.378;9.688;2022-12-07T12:23:35;3.70;;;1.93;;
20609;SDS011;10463;52.378;9.688;2022-12-07T12:26:26;3.80;;;2.00;;
20609;SDS011;10463;52.378;9.688;2022-12-07T12:29:23;3.27;;;1.70;;
20609;SDS011;10463;52.378;9.688;2022-12-07T12:32:16;3.10;;;1.80;;
20609;SDS011;10463;52.378;9.688;2022-12-07T12:35:26;2.60;;;1.50;;
20609;SDS011;10463;52.378;9.688;2022-12-07T12:38:34;4.00;;;1.50;;
20609;SDS011;10463;52.378;9.688;2022-12-07T12:41:56;2.20;;;1.23;;
20609;SDS011;10463;52.378;9.688;2022-12-07T12:45:17;2.40;;;1.40;;
20609;SDS011;10463;52.378;9.688;2022-12-07T12:51:35;2.73;;;1.63;;
20609;SDS011;10463;52.378;9.688;2022-12-07T12:54:23;2.67;;;1.40;;
20609;SDS011;10463;52.378;9.688;2022-12-07T12:57:12;1.80;;;1.10;;
20609;SDS011;10463;52.378;9.688;2022-12-07T13:00:12;1.80;;;1.07;;
20609;SDS011;10463;52.378;9.688;2022-12-07T13:03:02;1.80;;;1.20;;
20609;SDS011;10463;52.378;9.688;2022-12-07T13:05:47;2.07;;;1.30;;
20609;SDS011;10463;52.378;9.688;2022-12-07T13:08:32;2.63;;;1.17;;
20609;SDS011;10463;52.378;9.688;2022-12-07T13:11:25;2.10;;;1.40;;
20609;SDS011;10463;52.378;9.688;2022-12-07T13:14:43;2.13;;;1.20;;
20609;SDS011;10463;52.378;9.688;2022-12-07T13:17:59;2.77;;;1.13;;
20609;SDS011;10463;52.378;9.688;2022-12-07T13:20:48;2.70;;;1.23;;
20609;SDS011;10463;52.378;9.688;2022-12-07T13:23:36;2.33;;;1.37;;
20609;SDS011;10463;52.378;9.688;2022-12-07T13:26:23;1.80;;;1.10;;
20609;SDS011;10463;52.378;9.688;2022-12-07T13:29:19;1.87;;;1.37;;
20609;SDS011;10463;52.378;9.688;2022-12-07T13:32:21;2.60;;;1.30;;
20609;SDS011;10463;52.378;9.688;2022-12-07T13:35:31;1.90;;;1.13;;
20609;SDS011;10463;52.378;9.688;2022-12-07T13:38:26;2.10;;;1.10;;
20609;SDS011;10463;52.378;9.688;2022-12-07T13:41:15;1.70;;;1.10;;
20609;SDS011;10463;52.378;9.688;2022-12-07T13:44:02;2.27;;;1.20;;
20609;SDS011;10463;52.378;9.688;2022-12-07T13:46:55;2.23;;;1.17;;
20609;SDS011;10463;52.378;9.688;2022-12-07T13:49:47;1.97;;;1.07;;
20609;SDS011;10463;52.378;9.688;2022-12-07T13:52:35;2.53;;;1.20;;
20609;SDS011;10463;52.378;9.688;2022-12-07T13:55:28;2.00;;;1.10;;
20609;SDS011;10463;52.378;9.688;2022-12-07T13:58:14;1.90;;;1.20;;
20609;SDS011;10463;52.378;9.688;2022-12-07T14:00:59;1.80;;;1.10;;
20609;SDS011;10463;52.378;9.688;2022-12-07T14:03:44;2.07;;;1.30;;
20609;SDS011;10463;52.378;9.688;2022-12-07T14:06:28;1.93;;;1.10;;
20609;SDS011;10463;52.378;9.688;2022-12-07T14:09:19;1.73;;;1.00;;
20609;SDS011;10463;52.378;9.688;2022-12-07T14:12:06;1.80;;;1.07;;
20609;SDS011;10463;52.378;9.688;2022-12-07T14:14:51;1.90;;;1.23;;
20609;SDS011;10463;52.378;9.688;2022-12-07T14:17:38;2.30;;;1.20;;
20609;SDS011;10463;52.378;9.688;2022-12-07T14:20:35;2.00;;;1.40;;
20609;SDS011;10463;52.378;9.688;2022-12-07T14:23:23;1.70;;;1.13;;
20609;SDS011;10463;52.378;9.688;2022-12-07T14:26:12;1.70;;;1.00;;
20609;SDS011;10463;52.378;9.688;2022-12-07T14:29:27;2.10;;;1.00;;
20609;SDS011;10463;52.378;9.688;2022-12-07T14:32:20;1.60;;;1.00;;
20609;SDS011;10463;52.378;9.688;2022-12-07T14:35:13;1.60;;;0.70;;
20609;SDS011;10463;52.378;9.688;2022-12-07T14:37:59;2.27;;;1.10;;
20609;SDS011;10463;52.378;9.688;2022-12-07T14:40:43;1.53;;;0.80;;
20609;SDS011;10463;52.378;9.688;2022-12-07T14:43:30;1.90;;;1.00;;
20609;SDS011;10463;52.378;9.688;2022-12-07T14:46:14;1.57;;;0.90;;
20609;SDS011;10463;52.378;9.688;2022-12-07T14:48:59;1.60;;;1.20;;
20609;SDS011;10463;52.378;9.688;2022-12-07T14:51:45;2.17;;;1.60;;
20609;SDS011;10463;52.378;9.688;2022-12-07T14:54:31;2.20;;;1.43;;
20609;SDS011;10463;52.378;9.688;2022-12-07T14:57:17;2.27;;;1.30;;
20609;SDS011;10463;52.378;9.688;2022-12-07T15:00:04;2.77;;;1.67;;
20609;SDS011;10463;52.378;9.688;2022-12-07T15:02:50;2.70;;;1.40;;
20609;SDS011;10463;52.378;9.688;2022-12-07T15:05:35;8.10;;;1.60;;
20609;SDS011;10463;52.378;9.688;2022-12-07T15:08:21;2.47;;;1.53;;
20609;SDS011;10463;52.378;9.688;2022-12-07T15:11:09;3.37;;;2.07;;
20609;SDS011;10463;52.378;9.688;2022-12-07T15:13:55;2.80;;;2.00;;
20609;SDS011;10463;52.378;9.688;2022-12-07T15:16:55;3.47;;;1.80;;
20609;SDS011;10463;52.378;9.688;2022-12-07T15:19:39;2.00;;;1.30;;
20609;SDS011;10463;52.378;9.688;2022-12-07T15:22:24;2.10;;;1.50;;
20609;SDS011;10463;52.378;9.688;2022-12-07T15:25:12;3.40;;;1.87;;
20609;SDS011;10463;52.378;9.688;2022-12-07T15:27:57;3.83;;;1.83;;
20609;SDS011;10463;52.378;9.688;2022-12-07T15:30:42;2.40;;;1.40;;
20609;SDS011;10463;52.378;9.688;2022-12-07T15:33:29;3.20;;;2.30;;
20609;SDS011;10463;52.378;9.688;2022-12-07T15:36:18;3.53;;;2.27;;
20609;SDS011;10463;52.378;9.688;2022-12-07T15:39:04;4.80;;;2.10;;
20609;SDS011;10463;52.378;9.688;2022-12-07T15:41:52;3.00;;;1.90;;
20609;SDS011;10463;52.378;9.688;2022-12-07T15:44:39;3.87;;;2.30;;
20609;SDS011;10463;52.378;9.688;2022-12-07T15:47:43;3.37;;;2.23;;
20609;SDS011;10463;52.378;9.688;2022-12-07T15:50:30;3.13;;;2.10;;
20609;SDS011;10463;52.378;9.688;2022-12-07T15:53:16;2.80;;;1.73;;
20609;SDS011;10463;52.378;9.688;2022-12-07T15:56:01;2.80;;;1.87;;
20609;SDS011;10463;52.378;9.688;2022-12-07T15:58:49;2.10;;;1.70;;
20609;SDS011;10463;52.378;9.688;2022-12-07T16:01:34;2.40;;;1.60;;
20609;SDS011;10463;52.378;9.688;2022-12-07T16:04:19;3.23;;;2.10;;
20609;SDS011;10463;52.378;9.688;2022-12-07T16:07:05;2.70;;;1.97;;
20609;SDS011;10463;52.378;9.688;2022-12-07T16:09:50;2.50;;;1.70;;
20609;SDS011;10463;52.378;9.688;2022-12-07T16:12:35;3.10;;;1.80;;
20609;SDS011;10463;52.378;9.688;2022-12-07T16:15:19;2.97;;;1.67;;
20609;SDS011;10463;52.378;9.688;2022-12-07T16:18:04;2.90;;;1.53;;
20609;SDS011;10463;52.378;9.688;2022-12-07T16:20:49;2.70;;;1.77;;
20609;SDS011;10463;52.378;9.688;2022-12-07T16:23:35;3.47;;;1.87;;
20609;SDS011;10463;52.378;9.688;2022-12-07T16:26:21;1.87;;;1.50;;
20609;SDS011;10463;52.378;9.688;2022-12-07T16:29:06;2.93;;;1.80;;
20609;SDS011;10463;52.378;9.688;2022-12-07T16:31:51;2.80;;;1.40;;
20609;SDS011;10463;52.378;9.688;2022-12-07T16:34:36;2.77;;;1.47;;
20609;SDS011;10463;52.378;9.688;2022-12-07T16:37:23;2.17;;;1.30;;
20609;SDS011;10463;52.378;9.688;2022-12-07T16:40:10;3.00;;;1.57;;
20609;SDS011;10463;52.378;9.688;2022-12-07T16:42:56;2.20;;;1.57;;
20609;SDS011;10463;52.378;9.688;2022-12-07T16:45:40;2.53;;;1.87;;
20609;SDS011;10463;52.378;9.688;2022-12-07T16:48:26;2.40;;;1.20;;
20609;SDS011;10463;52.378;9.688;2022-12-07T16:51:12;2.20;;;1.30;;
20609;SDS011;10463;52.378;9.688;2022-12-07T16:53:58;2.00;;;1.10;;
20609;SDS011;10463;52.378;9.688;2022-12-07T16:56:44;2.03;;;1.37;;
20609;SDS011;10463;52.378;9.688;2022-12-07T16:59:29;3.27;;;1.80;;
20609;SDS011;10463;52.378;9.688;2022-12-07T17:02:14;1.60;;;1.07;;
20609;SDS011;10463;52.378;9.688;2022-12-07T17:04:59;2.33;;;1.53;;
20609;SDS011;10463;52.378;9.688;2022-12-07T17:07:43;3.17;;;1.80;;
20609;SDS011;10463;52.378;9.688;2022-12-07T17:10:28;2.57;;;1.97;;
20609;SDS011;10463;52.378;9.688;2022-12-07T17:13:14;2.27;;;1.63;;